sensor_id;sensor_type;location;lat;lon;timestamp;P1;durP1;ratioP1;P2;durP2;ratioP2
28714;SDS011;15886;49.170;14.572;2022-07-18T00:14:28;4.53;;;1.70;;
28714;SDS011;15886;49.170;14.572;2022-07-18T00:17:48;4.97;;;1.65;;
28714;SDS011;15886;49.170;14.572;2022-07-18T00:20:22;7.05;;;2.58;;
28714;SDS011;15886;49.170;14.572;2022-07-18T00:51:22;3.70;;;1.70;;
28714;SDS011;15886;49.170;14.572;2022-07-18T00:53:57;3.60;;;1.90;;
28714;SDS011;15886;49.170;14.572;2022-07-18T00:56:27;4.65;;;2.30;;
28714;SDS011;15886;49.170;14.572;2022-07-18T00:58:58;7.38;;;1.80;;
28714;SDS011;15886;49.170;14.572;2022-07-18T01:01:45;3.80;;;1.63;;
28714;SDS011;15886;49.170;14.572;2022-07-18T01:09:14;6.75;;;1.88;;
28714;SDS011;15886;49.170;14.572;2022-07-18T01:12:30;7.47;;;1.83;;
28714;SDS011;15886;49.170;14.572;2022-07-18T01:20:09;9.07;;;2.00;;
28714;SDS011;15886;49.170;14.572;2022-07-18T01:30:36;6.30;;;2.08;;
28714;SDS011;15886;49.170;14.572;2022-07-18T01:42:35;4.70;;;2.10;;
28714;SDS011;15886;49.170;14.572;2022-07-18T01:54:29;4.75;;;2.40;;
28714;SDS011;15886;49.170;14.572;2022-07-18T02:00:29;5.32;;;2.42;;
28714;SDS011;15886;49.170;14.572;2022-07-18T02:04:09;7.57;;;3.17;;
28714;SDS011;15886;49.170;14.572;2022-07-18T03:30:00;13.45;;;2.88;;
28714;SDS011;15886;49.170;14.572;2022-07-18T03:32:54;12.43;;;2.70;;
28714;SDS011;15886;49.170;14.572;2022-07-18T03:35:33;4.63;;;2.83;;
28714;SDS011;15886;49.170;14.572;2022-07-18T03:38:13;4.80;;;2.75;;
28714;SDS011;15886;49.170;14.572;2022-07-18T03:40:41;15.32;;;4.47;;
28714;SDS011;15886;49.170;14.572;2022-07-18T04:18:21;6.33;;;3.27;;
28714;SDS011;15886;49.170;14.572;2022-07-18T04:20:49;7.80;;;3.50;;
28714;SDS011;15886;49.170;14.572;2022-07-18T04:23:18;9.77;;;3.08;;
28714;SDS011;15886;49.170;14.572;2022-07-18T04:28:51;15.13;;;4.05;;
28714;SDS011;15886;49.170;14.572;2022-07-18T04:57:16;5.65;;;3.50;;
28714;SDS011;15886;49.170;14.572;2022-07-18T05:02:55;8.35;;;3.35;;
28714;SDS011;15886;49.170;14.572;2022-07-18T05:05:32;5.50;;;3.42;;
28714;SDS011;15886;49.170;14.572;2022-07-18T05:08:56;5.82;;;3.17;;
28714;SDS011;15886;49.170;14.572;2022-07-18T06:30:31;3.75;;;2.10;;
28714;SDS011;15886;49.170;14.572;2022-07-18T07:04:04;5.63;;;2.17;;
28714;SDS011;15886;49.170;14.572;2022-07-18T07:09:25;6.18;;;2.38;;
28714;SDS011;15886;49.170;14.572;2022-07-18T07:12:05;4.75;;;2.30;;
28714;SDS011;15886;49.170;14.572;2022-07-18T07:35:40;4.83;;;2.43;;
28714;SDS011;15886;49.170;14.572;2022-07-18T07:47:39;3.95;;;2.20;;
28714;SDS011;15886;49.170;14.572;2022-07-18T07:53:25;9.98;;;2.33;;
28714;SDS011;15886;49.170;14.572;2022-07-18T08:34:42;79.07;;;22.35;;
28714;SDS011;15886;49.170;14.572;2022-07-18T08:40:44;28.15;;;7.28;;
28714;SDS011;15886;49.170;14.572;2022-07-18T10:38:26;3.53;;;1.70;;
28714;SDS011;15886;49.170;14.572;2022-07-18T10:41:12;6.35;;;1.85;;
28714;SDS011;15886;49.170;14.572;2022-07-18T10:43:44;4.55;;;1.65;;
28714;SDS011;15886;49.170;14.572;2022-07-18T11:08:31;2.78;;;1.50;;
28714;SDS011;15886;49.170;14.572;2022-07-18T11:11:12;4.30;;;1.00;;
28714;SDS011;15886;49.170;14.572;2022-07-18T11:23:15;6.93;;;1.92;;
28714;SDS011;15886;49.170;14.572;2022-07-18T11:26:17;3.72;;;1.33;;
28714;SDS011;15886;49.170;14.572;2022-07-18T11:32:06;2.20;;;1.20;;
28714;SDS011;15886;49.170;14.572;2022-07-18T11:34:34;2.92;;;1.30;;
28714;SDS011;15886;49.170;14.572;2022-07-18T11:37:05;2.13;;;1.20;;
28714;SDS011;15886;49.170;14.572;2022-07-18T11:39:33;2.85;;;1.30;;
28714;SDS011;15886;49.170;14.572;2022-07-18T11:42:02;3.90;;;1.10;;
28714;SDS011;15886;49.170;14.572;2022-07-18T11:44:32;3.95;;;1.20;;
28714;SDS011;15886;49.170;14.572;2022-07-18T11:47:01;2.50;;;1.20;;
28714;SDS011;15886;49.170;14.572;2022-07-18T11:49:35;2.28;;;1.20;;
28714;SDS011;15886;49.170;14.572;2022-07-18T11:52:04;1.40;;;1.10;;
28714;SDS011;15886;49.170;14.572;2022-07-18T11:54:33;2.35;;;1.30;;
28714;SDS011;15886;49.170;14.572;2022-07-18T11:57:02;3.42;;;0.95;;
28714;SDS011;15886;49.170;14.572;2022-07-18T11:59:38;4.28;;;0.93;;
28714;SDS011;15886;49.170;14.572;2022-07-18T12:02:08;3.03;;;1.20;;
28714;SDS011;15886;49.170;14.572;2022-07-18T12:04:36;3.60;;;1.23;;
28714;SDS011;15886;49.170;14.572;2022-07-18T12:07:19;2.15;;;1.10;;
28714;SDS011;15886;49.170;14.572;2022-07-18T12:09:52;1.50;;;1.20;;
28714;SDS011;15886;49.170;14.572;2022-07-18T12:12:21;3.15;;;1.60;;
28714;SDS011;15886;49.170;14.572;2022-07-18T12:14:54;9.85;;;1.48;;
28714;SDS011;15886;49.170;14.572;2022-07-18T12:17:41;2.20;;;1.30;;
28714;SDS011;15886;49.170;14.572;2022-07-18T12:20:19;3.25;;;1.55;;
28714;SDS011;15886;49.170;14.572;2022-07-18T12:23:04;4.35;;;1.10;;
28714;SDS011;15886;49.170;14.572;2022-07-18T12:25:39;2.42;;;1.20;;
28714;SDS011;15886;49.170;14.572;2022-07-18T12:28:11;2.88;;;1.17;;
28714;SDS011;15886;49.170;14.572;2022-07-18T12:30:45;2.55;;;1.27;;
28714;SDS011;15886;49.170;14.572;2022-07-18T12:33:13;8.65;;;2.28;;
28714;SDS011;15886;49.170;14.572;2022-07-18T12:35:41;6.85;;;1.42;;
28714;SDS011;15886;49.170;14.572;2022-07-18T12:38:10;2.83;;;1.30;;
28714;SDS011;15886;49.170;14.572;2022-07-18T12:40:43;3.58;;;1.27;;
28714;SDS011;15886;49.170;14.572;2022-07-18T12:43:13;2.38;;;1.30;;
28714;SDS011;15886;49.170;14.572;2022-07-18T12:45:42;2.35;;;1.20;;
28714;SDS011;15886;49.170;14.572;2022-07-18T12:48:11;2.10;;;1.27;;
28714;SDS011;15886;49.170;14.572;2022-07-18T12:50:40;2.72;;;1.05;;
28714;SDS011;15886;49.170;14.572;2022-07-18T12:53:10;2.78;;;1.30;;
28714;SDS011;15886;49.170;14.572;2022-07-18T12:55:38;2.83;;;1.27;;
28714;SDS011;15886;49.170;14.572;2022-07-18T12:58:07;2.63;;;1.23;;
28714;SDS011;15886;49.170;14.572;2022-07-18T13:00:35;3.08;;;1.40;;
28714;SDS011;15886;49.170;14.572;2022-07-18T13:03:03;2.40;;;1.20;;
28714;SDS011;15886;49.170;14.572;2022-07-18T13:05:32;4.78;;;1.38;;
28714;SDS011;15886;49.170;14.572;2022-07-18T13:08:00;2.50;;;1.10;;
28714;SDS011;15886;49.170;14.572;2022-07-18T13:10:28;2.97;;;1.17;;
28714;SDS011;15886;49.170;14.572;2022-07-18T13:12:57;3.97;;;1.88;;
28714;SDS011;15886;49.170;14.572;2022-07-18T13:15:25;4.00;;;1.00;;
28714;SDS011;15886;49.170;14.572;2022-07-18T13:17:53;2.28;;;1.25;;
28714;SDS011;15886;49.170;14.572;2022-07-18T13:20:22;3.60;;;1.35;;
28714;SDS011;15886;49.170;14.572;2022-07-18T13:22:50;4.28;;;1.02;;
28714;SDS011;15886;49.170;14.572;2022-07-18T13:25:20;1.98;;;1.30;;
28714;SDS011;15886;49.170;14.572;2022-07-18T13:27:49;6.47;;;1.20;;
28714;SDS011;15886;49.170;14.572;2022-07-18T13:30:18;1.98;;;1.35;;
28714;SDS011;15886;49.170;14.572;2022-07-18T13:32:47;4.22;;;1.20;;
28714;SDS011;15886;49.170;14.572;2022-07-18T13:35:15;3.40;;;1.52;;
28714;SDS011;15886;49.170;14.572;2022-07-18T13:37:44;3.60;;;1.40;;
28714;SDS011;15886;49.170;14.572;2022-07-18T13:40:12;3.47;;;1.17;;
28714;SDS011;15886;49.170;14.572;2022-07-18T13:45:46;2.05;;;1.30;;
28714;SDS011;15886;49.170;14.572;2022-07-18T13:55:40;4.32;;;1.10;;
28714;SDS011;15886;49.170;14.572;2022-07-18T13:58:50;2.25;;;1.63;;
28714;SDS011;15886;49.170;14.572;2022-07-18T14:08:07;1.05;;;0.90;;
28714;SDS011;15886;49.170;14.572;2022-07-18T14:10:45;2.00;;;1.17;;
28714;SDS011;15886;49.170;14.572;2022-07-18T14:13:20;4.18;;;1.48;;
28714;SDS011;15886;49.170;14.572;2022-07-18T14:16:13;11.02;;;2.00;;
28714;SDS011;15886;49.170;14.572;2022-07-18T15:32:24;3.53;;;1.50;;
28714;SDS011;15886;49.170;14.572;2022-07-18T15:50:45;2.80;;;1.27;;
28714;SDS011;15886;49.170;14.572;2022-07-18T15:56:59;1.85;;;1.10;;
28714;SDS011;15886;49.170;14.572;2022-07-18T16:02:39;2.60;;;1.08;;
28714;SDS011;15886;49.170;14.572;2022-07-18T16:05:10;2.45;;;1.05;;
28714;SDS011;15886;49.170;14.572;2022-07-18T16:07:39;1.95;;;1.10;;
28714;SDS011;15886;49.170;14.572;2022-07-18T16:10:09;2.42;;;1.17;;
28714;SDS011;15886;49.170;14.572;2022-07-18T16:12:38;1.17;;;1.02;;
28714;SDS011;15886;49.170;14.572;2022-07-18T16:15:07;2.17;;;1.33;;
28714;SDS011;15886;49.170;14.572;2022-07-18T16:17:37;2.65;;;1.35;;
28714;SDS011;15886;49.170;14.572;2022-07-18T16:20:06;3.80;;;1.33;;
28714;SDS011;15886;49.170;14.572;2022-07-18T16:22:35;1.35;;;1.10;;
28714;SDS011;15886;49.170;14.572;2022-07-18T16:31:51;1.73;;;1.23;;
28714;SDS011;15886;49.170;14.572;2022-07-18T16:34:59;1.15;;;0.90;;
28714;SDS011;15886;49.170;14.572;2022-07-18T16:37:27;2.38;;;1.20;;
28714;SDS011;15886;49.170;14.572;2022-07-18T16:48:59;1.75;;;1.20;;
28714;SDS011;15886;49.170;14.572;2022-07-18T16:54:53;1.17;;;0.70;;
28714;SDS011;15886;49.170;14.572;2022-07-18T16:57:33;1.75;;;1.05;;
28714;SDS011;15886;49.170;14.572;2022-07-18T17:01:14;0.90;;;0.70;;
28714;SDS011;15886;49.170;14.572;2022-07-18T17:04:11;2.40;;;1.00;;
28714;SDS011;15886;49.170;14.572;2022-07-18T17:06:40;2.08;;;0.88;;
28714;SDS011;15886;49.170;14.572;2022-07-18T17:11:58;1.90;;;0.90;;
28714;SDS011;15886;49.170;14.572;2022-07-18T17:14:34;4.00;;;0.80;;
28714;SDS011;15886;49.170;14.572;2022-07-18T17:17:05;2.90;;;1.10;;
28714;SDS011;15886;49.170;14.572;2022-07-18T17:19:49;3.53;;;1.23;;
28714;SDS011;15886;49.170;14.572;2022-07-18T17:22:18;1.60;;;1.10;;
28714;SDS011;15886;49.170;14.572;2022-07-18T17:24:48;2.78;;;1.30;;
28714;SDS011;15886;49.170;14.572;2022-07-18T17:27:22;2.85;;;1.20;;
28714;SDS011;15886;49.170;14.572;2022-07-18T17:29:51;4.20;;;1.45;;
28714;SDS011;15886;49.170;14.572;2022-07-18T17:32:23;4.15;;;1.20;;
28714;SDS011;15886;49.170;14.572;2022-07-18T17:34:53;1.88;;;1.10;;
28714;SDS011;15886;49.170;14.572;2022-07-18T17:37:36;2.50;;;1.20;;
28714;SDS011;15886;49.170;14.572;2022-07-18T17:40:15;1.92;;;1.23;;
28714;SDS011;15886;49.170;14.572;2022-07-18T17:43:03;1.83;;;0.90;;
28714;SDS011;15886;49.170;14.572;2022-07-18T17:45:43;4.05;;;1.08;;
28714;SDS011;15886;49.170;14.572;2022-07-18T17:48:37;1.05;;;0.93;;
28714;SDS011;15886;49.170;14.572;2022-07-18T17:51:07;2.17;;;1.05;;
28714;SDS011;15886;49.170;14.572;2022-07-18T17:53:46;4.07;;;0.60;;
28714;SDS011;15886;49.170;14.572;2022-07-18T17:56:19;20.70;;;8.93;;
28714;SDS011;15886;49.170;14.572;2022-07-18T18:02:37;203.68;;;29.67;;
28714;SDS011;15886;49.170;14.572;2022-07-18T18:05:06;137.40;;;23.60;;
28714;SDS011;15886;49.170;14.572;2022-07-18T18:07:44;103.72;;;18.25;;
28714;SDS011;15886;49.170;14.572;2022-07-18T18:13:49;5.63;;;2.22;;
28714;SDS011;15886;49.170;14.572;2022-07-18T18:16:20;23.48;;;5.68;;
28714;SDS011;15886;49.170;14.572;2022-07-18T20:05:27;6.65;;;1.77;;
28714;SDS011;15886;49.170;14.572;2022-07-18T20:14:44;2.70;;;1.58;;
28714;SDS011;15886;49.170;14.572;2022-07-18T20:23:32;2.88;;;1.67;;
28714;SDS011;15886;49.170;14.572;2022-07-18T20:54:45;3.72;;;1.80;;
28714;SDS011;15886;49.170;14.572;2022-07-18T20:57:31;4.47;;;1.90;;
28714;SDS011;15886;49.170;14.572;2022-07-18T21:03:47;3.83;;;2.15;;
28714;SDS011;15886;49.170;14.572;2022-07-18T21:06:29;3.65;;;1.42;;
28714;SDS011;15886;49.170;14.572;2022-07-18T21:08:57;4.53;;;1.50;;
28714;SDS011;15886;49.170;14.572;2022-07-18T21:11:25;5.85;;;1.98;;
28714;SDS011;15886;49.170;14.572;2022-07-18T21:13:54;4.00;;;2.00;;
28714;SDS011;15886;49.170;14.572;2022-07-18T21:16:23;3.97;;;1.58;;
28714;SDS011;15886;49.170;14.572;2022-07-18T21:18:52;5.55;;;1.83;;
28714;SDS011;15886;49.170;14.572;2022-07-18T21:21:20;4.30;;;1.80;;
28714;SDS011;15886;49.170;14.572;2022-07-18T21:23:49;7.78;;;1.95;;
28714;SDS011;15886;49.170;14.572;2022-07-18T21:26:17;2.90;;;1.77;;
28714;SDS011;15886;49.170;14.572;2022-07-18T21:28:45;5.05;;;2.03;;
28714;SDS011;15886;49.170;14.572;2022-07-18T21:31:13;4.05;;;2.00;;
28714;SDS011;15886;49.170;14.572;2022-07-18T21:33:41;6.00;;;2.13;;
28714;SDS011;15886;49.170;14.572;2022-07-18T21:36:09;5.30;;;1.77;;
28714;SDS011;15886;49.170;14.572;2022-07-18T21:38:39;4.22;;;1.92;;
28714;SDS011;15886;49.170;14.572;2022-07-18T21:41:07;6.68;;;2.17;;
28714;SDS011;15886;49.170;14.572;2022-07-18T21:43:37;5.82;;;2.15;;
28714;SDS011;15886;49.170;14.572;2022-07-18T21:46:05;6.05;;;2.00;;
28714;SDS011;15886;49.170;14.572;2022-07-18T21:48:33;5.85;;;1.92;;
28714;SDS011;15886;49.170;14.572;2022-07-18T21:51:01;3.67;;;1.85;;
28714;SDS011;15886;49.170;14.572;2022-07-18T21:53:29;2.85;;;1.92;;
28714;SDS011;15886;49.170;14.572;2022-07-18T21:55:57;5.00;;;2.25;;
28714;SDS011;15886;49.170;14.572;2022-07-18T21:58:25;6.63;;;2.25;;
28714;SDS011;15886;49.170;14.572;2022-07-18T22:00:54;5.60;;;2.33;;
28714;SDS011;15886;49.170;14.572;2022-07-18T22:03:24;5.00;;;1.83;;
28714;SDS011;15886;49.170;14.572;2022-07-18T22:05:53;7.18;;;1.95;;
28714;SDS011;15886;49.170;14.572;2022-07-18T22:08:21;5.10;;;1.80;;
28714;SDS011;15886;49.170;14.572;2022-07-18T22:10:49;3.58;;;1.75;;
28714;SDS011;15886;49.170;14.572;2022-07-18T22:13:17;3.67;;;1.48;;
28714;SDS011;15886;49.170;14.572;2022-07-18T22:15:48;3.47;;;1.80;;
28714;SDS011;15886;49.170;14.572;2022-07-18T22:18:18;2.47;;;1.80;;
28714;SDS011;15886;49.170;14.572;2022-07-18T22:20:51;3.53;;;1.92;;
28714;SDS011;15886;49.170;14.572;2022-07-18T22:23:20;5.95;;;1.83;;
28714;SDS011;15886;49.170;14.572;2022-07-18T22:25:48;12.90;;;2.45;;
28714;SDS011;15886;49.170;14.572;2022-07-18T22:28:18;2.95;;;1.80;;
28714;SDS011;15886;49.170;14.572;2022-07-18T22:30:46;6.78;;;1.80;;
28714;SDS011;15886;49.170;14.572;2022-07-18T22:33:14;4.25;;;1.52;;
28714;SDS011;15886;49.170;14.572;2022-07-18T22:35:47;4.72;;;1.67;;
28714;SDS011;15886;49.170;14.572;2022-07-18T22:38:15;3.72;;;1.70;;
28714;SDS011;15886;49.170;14.572;2022-07-18T22:40:50;4.38;;;1.67;;
28714;SDS011;15886;49.170;14.572;2022-07-18T22:43:20;4.53;;;1.95;;
28714;SDS011;15886;49.170;14.572;2022-07-18T22:45:48;5.28;;;1.80;;
28714;SDS011;15886;49.170;14.572;2022-07-18T22:48:17;5.65;;;1.92;;
28714;SDS011;15886;49.170;14.572;2022-07-18T22:50:50;8.13;;;1.58;;
28714;SDS011;15886;49.170;14.572;2022-07-18T22:53:20;5.13;;;2.15;;
28714;SDS011;15886;49.170;14.572;2022-07-18T22:55:54;4.47;;;2.00;;
28714;SDS011;15886;49.170;14.572;2022-07-18T22:58:22;3.25;;;1.63;;
28714;SDS011;15886;49.170;14.572;2022-07-18T23:00:52;4.38;;;1.73;;
28714;SDS011;15886;49.170;14.572;2022-07-18T23:03:20;2.55;;;1.75;;
28714;SDS011;15886;49.170;14.572;2022-07-18T23:05:50;5.00;;;2.17;;
28714;SDS011;15886;49.170;14.572;2022-07-18T23:08:20;7.40;;;2.00;;
28714;SDS011;15886;49.170;14.572;2022-07-18T23:10:49;6.90;;;2.17;;
28714;SDS011;15886;49.170;14.572;2022-07-18T23:13:17;10.25;;;2.45;;
28714;SDS011;15886;49.170;14.572;2022-07-18T23:15:46;6.68;;;2.10;;
28714;SDS011;15886;49.170;14.572;2022-07-18T23:18:21;4.53;;;2.00;;
28714;SDS011;15886;49.170;14.572;2022-07-18T23:20:51;5.53;;;1.80;;
28714;SDS011;15886;49.170;14.572;2022-07-18T23:23:23;6.45;;;1.90;;
28714;SDS011;15886;49.170;14.572;2022-07-18T23:25:51;8.35;;;2.05;;
28714;SDS011;15886;49.170;14.572;2022-07-18T23:28:21;7.55;;;2.05;;
28714;SDS011;15886;49.170;14.572;2022-07-18T23:30:49;6.25;;;2.17;;
28714;SDS011;15886;49.170;14.572;2022-07-18T23:33:17;4.22;;;2.50;;
28714;SDS011;15886;49.170;14.572;2022-07-18T23:35:46;5.45;;;2.20;;
28714;SDS011;15886;49.170;14.572;2022-07-18T23:41:33;3.38;;;1.75;;
28714;SDS011;15886;49.170;14.572;2022-07-18T23:44:09;5.10;;;2.40;;
28714;SDS011;15886;49.170;14.572;2022-07-18T23:46:40;6.35;;;1.92;;
28714;SDS011;15886;49.170;14.572;2022-07-18T23:49:10;6.00;;;2.05;;
28714;SDS011;15886;49.170;14.572;2022-07-18T23:51:38;6.30;;;2.10;;
28714;SDS011;15886;49.170;14.572;2022-07-18T23:54:06;8.70;;;2.08;;
28714;SDS011;15886;49.170;14.572;2022-07-18T23:56:56;4.50;;;2.22;;
28714;SDS011;15886;49.170;14.572;2022-07-18T23:59:46;3.22;;;2.10;;
